Redding Municipal Airport
KRDD : now visible

Airfield :











YOU CAN JOIN US ON...

 
LOGIN :

Register | Disclaimer

   EN    FR    IT 

 









Legend :    VFR   Marginal VFR   IFR   Intensive IFR   Very Intensive IFR
Visi :
Ceiling :
>= 8 km
>= 3000ft
5 to 8 km
1000 to 3000 ft
1500m to 5 km
500 to 1000 ft
800 to 1500m
200 to 500 ft
< 800m
< 200 ft
Symbols :   Thunderstorms  Fog  Heavy snow  Heavy precipitations  Wind > 20 kt






- Airport Elevation : 505 ft
- IATA code : RDD


KRDD - Redding Municipal

CURRENT METAR :
  • 271353Z AUTO 00000KT 10SM CLR 12/08 A3000 RMK AO2 SLP154 T01220083

EXPIRED METARs :
  • 271253Z AUTO 08003KT 10SM CLR 13/08 A2999 RMK AO2 SLP150 T01330078
  • 271153Z AUTO 19003KT 10SM CLR 16/09 A2998 RMK AO2 SLP148 T01560089 10194 20144 51006

TAF KRDD
Valid from the 27 at 12:00 until the 28 at 12:00 UTC


271131Z 2712/2812 VRB04KT P6SM SCT250
FM272100 19010KT P6SM OVC070
FM280100 20012KT P6SM -RA OVC050
FM280500 29010G20KT P6SM BKN100
KZOA FIR / North America



MET'MAP, your aeronautical weather chart ! - Copyright ORBIFLY December 2007 - Disclaimer

ORBIFLY MET'MAP TEAM :

Programming & Development : Alexandra Zaïnal
Concept & original design : Baudouin d'Aumeries
Assistance for programming : Marc-Olivier Méhu
Technical & hardware support : Manuel Goepfert

Contact : metmap@orbifly.com




SOURCES & CREDITS :

   NOAA       Earth
Advisory